Time;durP1;ratioP1;P1;durP2;ratioP2;P2;SDS_P1;SDS_P2;PMS_P1;PMS_P2;Temp;Humidity;BMP_temperature;BMP_pressure;BME280_temperature;BME280_humidity;BME280_pressure;Samples;Min_cycle;Max_cycle;Signal;HPM_P1;HPM_P2
2022/03/21 00:00:44;;;;;;;48.25;14.93;;;12.70;70.70;;;;;;5015164;28;20030;-74
2022/03/21 00:03:12;;;;;;;42.75;14.60;;;12.70;70.30;;;;;;5005071;28;20380;-74
2022/03/21 00:05:38;;;;;;;43.83;13.20;;;12.70;70.40;;;;;;5015236;28;20533;-74
2022/03/21 00:08:04;;;;;;;49.03;14.05;;;12.70;70.10;;;;;;5014965;28;20065;-74
2022/03/21 00:10:33;;;;;;;44.92;14.52;;;12.80;70.20;;;;;;5015242;28;20026;-74
2022/03/21 00:13:00;;;;;;;42.75;13.52;;;12.70;70.10;;;;;;5014872;28;20022;-74
2022/03/21 00:15:26;;;;;;;46.92;14.25;;;12.70;70.10;;;;;;5015076;28;20014;-76
2022/03/21 00:17:52;;;;;;;41.88;14.15;;;12.70;70.20;;;;;;5014698;28;20022;-74
2022/03/21 00:20:18;;;;;;;39.90;13.45;;;12.70;70.20;;;;;;5013502;28;20033;-74
2022/03/21 00:22:43;;;;;;;40.08;13.55;;;12.70;70.20;;;;;;5014789;28;20025;-74
2022/03/21 00:25:09;;;;;;;38.05;13.25;;;12.70;70.20;;;;;;5014725;28;20034;-73
2022/03/21 00:27:37;;;;;;;37.35;12.65;;;12.70;70.40;;;;;;5013296;28;20034;-74
2022/03/21 00:30:07;;;;;;;36.78;12.85;;;12.70;70.30;;;;;;5013303;28;20034;-73
2022/03/21 00:32:32;;;;;;;39.70;13.05;;;12.70;70.20;;;;;;5012922;28;20076;-74
2022/03/21 00:34:58;;;;;;;40.38;12.95;;;12.70;70.20;;;;;;5013327;28;20021;-74
2022/03/21 00:37:24;;;;;;;35.67;13.13;;;12.70;70.10;;;;;;5013133;28;20022;-73
2022/03/21 00:39:52;;;;;;;34.95;13.50;;;12.70;70.20;;;;;;5013432;28;20072;-74
2022/03/21 00:42:18;;;;;;;33.70;12.95;;;12.70;70.10;;;;;;5013373;28;20077;-74
2022/03/21 00:44:43;;;;;;;37.63;12.57;;;12.70;70.10;;;;;;5012990;28;20018;-73
2022/03/21 00:47:10;;;;;;;37.97;12.63;;;12.70;70.10;;;;;;5012888;28;20022;-74
2022/03/21 00:49:35;;;;;;;35.03;12.50;;;12.70;70.30;;;;;;5013189;28;20026;-74
2022/03/21 00:52:01;;;;;;;43.47;13.30;;;12.70;69.90;;;;;;5012816;28;20390;-74
2022/03/21 00:54:27;;;;;;;45.92;12.55;;;12.70;70.30;;;;;;5014045;28;20014;-74
2022/03/21 00:56:53;;;;;;;46.00;12.18;;;12.70;70.70;;;;;;5014472;28;20466;-73
2022/03/21 00:59:19;;;;;;;32.58;12.27;;;12.70;70.40;;;;;;5012709;28;20109;-74
2022/03/21 01:01:44;;;;;;;37.08;12.70;;;12.70;70.30;;;;;;5012809;28;20503;-74
2022/03/21 01:04:10;;;;;;;46.67;13.40;;;12.70;70.30;;;;;;5013952;28;20040;-75
2022/03/21 01:06:35;;;;;;;50.80;12.77;;;12.70;70.90;;;;;;5014180;28;20022;-74
2022/03/21 01:09:02;;;;;;;37.85;12.55;;;12.70;70.70;;;;;;5012196;28;20514;-74
2022/03/21 01:11:28;;;;;;;38.35;12.82;;;12.70;70.70;;;;;;5012695;28;20025;-74
2022/03/21 01:13:54;;;;;;;34.13;12.23;;;12.70;70.40;;;;;;5014013;28;20030;-74
2022/03/21 01:16:19;;;;;;;29.50;12.20;;;12.70;70.50;;;;;;5013815;28;20419;-73
2022/03/21 01:18:45;;;;;;;38.70;12.57;;;12.70;70.50;;;;;;5013483;28;20022;-76
2022/03/21 01:21:11;;;;;;;34.65;12.20;;;12.70;70.60;;;;;;5012562;28;20026;-74
2022/03/21 01:23:37;;;;;;;37.90;11.93;;;12.70;70.70;;;;;;5012535;28;20029;-74
2022/03/21 01:26:03;;;;;;;35.58;12.43;;;12.70;70.60;;;;;;5012299;28;20030;-74
2022/03/21 01:28:28;;;;;;;31.63;11.70;;;12.70;70.60;;;;;;5013131;28;20088;-74
2022/03/21 01:30:54;;;;;;;28.90;11.35;;;12.80;70.70;;;;;;5013568;28;20026;-75
2022/03/21 01:33:19;;;;;;;29.95;11.18;;;12.70;70.70;;;;;;5012081;28;20022;-72
2022/03/21 01:35:45;;;;;;;38.20;11.60;;;12.70;70.60;;;;;;5013683;28;20487;-74
2022/03/21 01:38:10;;;;;;;39.00;11.90;;;12.70;70.80;;;;;;5011941;28;20049;-74
2022/03/21 01:40:36;;;;;;;33.60;12.50;;;12.70;71.10;;;;;;5012375;28;20018;-74
2022/03/21 01:43:02;;;;;;;34.53;12.27;;;12.70;70.90;;;;;;5012696;28;20022;-74
2022/03/21 01:45:28;;;;;;;39.90;12.60;;;12.70;70.80;;;;;;5012251;28;20037;-74
2022/03/21 01:47:54;;;;;;;32.35;12.32;;;12.70;70.80;;;;;;5012781;28;20052;-74
2022/03/21 01:50:20;;;;;;;31.63;11.63;;;12.70;70.80;;;;;;5013421;28;20487;-74
2022/03/21 01:52:45;;;;;;;34.17;11.55;;;12.70;70.90;;;;;;5011849;28;20483;-74
2022/03/21 01:57:59;;;;;;;38.17;11.65;;;12.70;71.00;;;;;;5005260;28;20049;-74
2022/03/21 02:00:25;;;;;;;49.70;12.90;;;12.70;71.80;;;;;;4998716;28;20022;-74
2022/03/21 02:02:51;;;;;;;38.50;11.98;;;12.70;71.60;;;;;;5013134;28;20036;-74
2022/03/21 02:05:16;;;;;;;30.73;11.80;;;12.70;71.00;;;;;;5011926;28;20084;-74
2022/03/21 02:07:42;;;;;;;47.70;13.32;;;12.70;71.20;;;;;;5011296;28;20025;-74
2022/03/21 02:10:08;;;;;;;40.03;12.77;;;12.70;71.20;;;;;;5013038;28;20109;-73
2022/03/21 02:12:34;;;;;;;41.38;12.80;;;12.70;71.00;;;;;;5012871;28;20025;-74
2022/03/21 02:15:00;;;;;;;38.38;11.57;;;12.70;71.00;;;;;;5012828;28;20026;-73
2022/03/21 02:17:27;;;;;;;41.97;12.30;;;12.70;70.90;;;;;;5011292;28;20084;-73
2022/03/21 02:19:54;;;;;;;39.85;12.77;;;12.70;70.90;;;;;;5012917;28;20472;-74
2022/03/21 02:22:22;;;;;;;31.10;11.25;;;12.70;70.90;;;;;;5012652;28;20017;-74
2022/03/21 02:25:09;;;;;;;38.42;11.93;;;12.70;70.90;;;;;;5012751;28;20026;-74
2022/03/21 02:27:35;;;;;;;29.45;11.05;;;12.70;70.90;;;;;;5012447;28;20022;-73
2022/03/21 02:30:02;;;;;;;44.28;11.82;;;12.70;70.90;;;;;;5011441;28;20502;-74
2022/03/21 02:32:28;;;;;;;33.30;11.55;;;12.70;71.30;;;;;;5012363;28;20108;-74
2022/03/21 02:34:55;;;;;;;42.40;11.20;;;12.70;71.20;;;;;;5011425;28;20484;-74
2022/03/21 02:37:23;;;;;;;27.77;11.55;;;12.70;71.00;;;;;;5010998;28;20018;-73
2022/03/21 02:39:50;;;;;;;29.02;10.98;;;12.70;70.80;;;;;;5012720;28;20029;-74
2022/03/21 02:42:15;;;;;;;31.33;12.05;;;12.70;70.90;;;;;;5012522;28;20472;-75
2022/03/21 02:44:41;;;;;;;26.27;11.07;;;12.70;70.90;;;;;;5011244;28;20037;-73
2022/03/21 02:47:08;;;;;;;29.88;11.07;;;12.70;70.90;;;;;;5011925;28;20037;-74
2022/03/21 02:49:34;;;;;;;36.08;12.30;;;12.70;71.00;;;;;;5011137;28;20372;-74
2022/03/21 02:52:04;;;;;;;30.27;10.98;;;12.70;71.30;;;;;;5012414;28;20028;-76
2022/03/21 02:54:30;;;;;;;23.77;10.73;;;12.70;71.10;;;;;;5015294;28;20030;-74
2022/03/21 02:56:57;;;;;;;29.80;10.60;;;12.70;70.90;;;;;;5018718;28;20018;-78
2022/03/21 02:59:23;;;;;;;33.47;11.63;;;12.60;70.90;;;;;;5018658;28;20034;-74
2022/03/21 03:01:53;;;;;;;30.00;11.07;;;12.70;70.90;;;;;;5018766;28;20067;-74
2022/03/21 03:04:19;;;;;;;31.10;11.20;;;12.70;71.00;;;;;;5018681;28;20109;-74
2022/03/21 03:06:45;;;;;;;25.60;11.00;;;12.70;71.00;;;;;;5017618;28;20065;-74
2022/03/21 03:09:10;;;;;;;28.92;12.13;;;12.70;71.00;;;;;;5017337;28;20459;-73
2022/03/21 03:11:37;;;;;;;33.88;11.25;;;12.70;71.00;;;;;;5018855;28;20026;-74
2022/03/21 03:14:03;;;;;;;26.35;10.63;;;12.70;70.90;;;;;;5018650;28;20030;-74
2022/03/21 03:16:29;;;;;;;26.08;10.85;;;12.70;70.90;;;;;;5018803;28;20034;-74
2022/03/21 03:18:54;;;;;;;26.27;10.63;;;12.70;70.80;;;;;;5016975;28;20083;-74
2022/03/21 03:21:24;;;;;;;31.45;11.02;;;12.70;70.80;;;;;;5017562;28;20114;-74
2022/03/21 03:23:50;;;;;;;25.90;10.10;;;12.70;70.70;;;;;;5018525;28;20079;-74
2022/03/21 03:26:16;;;;;;;23.27;10.45;;;12.70;71.00;;;;;;5017288;28;20029;-75
2022/03/21 03:28:42;;;;;;;30.17;10.73;;;12.70;70.40;;;;;;5018270;28;20022;-74
2022/03/21 03:31:08;;;;;;;23.30;10.63;;;12.70;70.40;;;;;;5018536;28;20393;-74
2022/03/21 03:33:33;;;;;;;26.15;10.52;;;12.70;70.50;;;;;;5018497;28;20029;-74
2022/03/21 03:35:59;;;;;;;25.30;10.52;;;12.70;70.40;;;;;;5017441;28;20038;-73
2022/03/21 03:38:24;;;;;;;21.50;9.85;;;12.60;70.20;;;;;;5016760;28;20033;-75
2022/03/21 03:40:50;;;;;;;26.55;10.57;;;12.70;70.60;;;;;;5013267;28;20811;-73
2022/03/21 03:43:16;;;;;;;23.15;10.88;;;12.60;71.00;;;;;;5006527;28;20141;-74
2022/03/21 03:45:42;;;;;;;24.15;10.50;;;12.70;70.40;;;;;;5003923;28;20028;-74
2022/03/21 03:48:09;;;;;;;21.75;10.25;;;12.70;70.30;;;;;;5018188;28;20406;-74
2022/03/21 03:50:34;;;;;;;25.98;10.30;;;12.70;70.50;;;;;;5017255;28;20454;-73
2022/03/21 03:53:00;;;;;;;29.98;10.73;;;12.70;70.20;;;;;;5017054;28;20049;-74
2022/03/21 03:55:26;;;;;;;29.27;10.25;;;12.60;70.10;;;;;;5018324;28;20029;-74
2022/03/21 03:57:52;;;;;;;24.63;10.25;;;12.70;70.60;;;;;;5016699;28;20026;-74
2022/03/21 04:00:18;;;;;;;23.92;10.65;;;12.60;70.50;;;;;;5018106;28;20076;-75
2022/03/21 04:05:28;;;;;;;25.15;11.27;;;12.60;70.30;;;;;;5017333;28;20438;-74
2022/03/21 04:07:54;;;;;;;17.73;10.07;;;12.60;70.50;;;;;;5013555;28;20748;-74
2022/03/21 04:10:22;;;;;;;19.73;9.60;;;12.60;70.70;;;;;;5015227;28;20050;-74
2022/03/21 04:12:49;;;;;;;24.42;9.98;;;12.60;70.70;;;;;;5015050;28;20030;-73
2022/03/21 04:15:19;;;;;;;24.50;10.80;;;12.70;70.60;;;;;;5014889;28;20046;-74
2022/03/21 04:17:45;;;;;;;20.83;9.82;;;12.60;70.60;;;;;;5013628;28;20483;-74
2022/03/21 04:20:12;;;;;;;20.73;9.35;;;12.60;70.60;;;;;;5014980;28;20030;-74
2022/03/21 04:22:37;;;;;;;19.35;9.27;;;12.60;70.60;;;;;;5014482;28;20026;-74
2022/03/21 04:25:06;;;;;;;17.25;9.27;;;12.60;70.60;;;;;;5014858;28;20550;-75
2022/03/21 04:27:32;;;;;;;20.23;10.25;;;12.60;70.70;;;;;;5014459;28;20088;-73
2022/03/21 04:29:57;;;;;;;19.67;10.25;;;12.60;70.50;;;;;;5014718;28;20476;-74
2022/03/21 04:32:23;;;;;;;18.08;9.50;;;12.60;70.50;;;;;;5013387;28;20083;-74
2022/03/21 04:34:48;;;;;;;19.50;9.38;;;12.60;70.50;;;;;;5014721;28;20054;-74
2022/03/21 04:37:14;;;;;;;30.77;10.30;;;12.60;70.40;;;;;;5014703;28;20018;-74
2022/03/21 04:39:40;;;;;;;22.60;9.95;;;12.60;71.40;;;;;;5013333;28;20108;-74
2022/03/21 04:42:05;;;;;;;17.50;9.65;;;12.70;70.80;;;;;;5012922;28;20466;-73
2022/03/21 04:44:31;;;;;;;30.48;9.93;;;12.60;70.50;;;;;;5013424;28;20026;-74
2022/03/21 04:46:57;;;;;;;23.35;9.00;;;12.60;70.70;;;;;;5013139;28;20449;-76
2022/03/21 04:49:22;;;;;;;33.60;11.10;;;12.60;70.70;;;;;;5013251;28;20072;-74
2022/03/21 04:51:48;;;;;;;25.38;10.35;;;12.60;71.00;;;;;;5013349;28;20022;-74
2022/03/21 04:54:13;;;;;;;27.33;10.60;;;12.60;70.80;;;;;;5014437;28;20364;-73
2022/03/21 04:56:39;;;;;;;20.45;9.48;;;12.60;70.90;;;;;;5013039;28;20014;-75
2022/03/21 04:59:04;;;;;;;16.52;9.35;;;12.60;70.70;;;;;;5014029;28;20038;-73
2022/03/21 05:01:29;;;;;;;25.23;10.52;;;12.60;70.70;;;;;;5013025;28;20081;-74
2022/03/21 05:03:56;;;;;;;19.63;9.60;;;12.60;70.80;;;;;;5014480;28;20034;-75
2022/03/21 05:06:22;;;;;;;22.40;9.43;;;12.60;70.70;;;;;;5014337;28;20026;-74
2022/03/21 05:08:49;;;;;;;16.60;9.10;;;12.60;70.60;;;;;;5012585;28;20033;-74
2022/03/21 05:11:15;;;;;;;24.17;10.45;;;12.60;70.70;;;;;;5014104;28;20037;-73
2022/03/21 05:13:40;;;;;;;20.88;9.77;;;12.60;70.80;;;;;;5013948;28;20030;-74
2022/03/21 05:16:06;;;;;;;19.92;9.70;;;12.60;70.90;;;;;;5012673;28;20018;-74
2022/03/21 05:18:35;;;;;;;19.20;9.15;;;12.60;70.80;;;;;;5008870;28;20014;-74
2022/03/21 05:21:01;;;;;;;21.38;9.10;;;12.60;70.70;;;;;;5014181;28;20427;-73
2022/03/21 05:31:39;;;;;;;16.05;9.20;;;12.60;70.90;;;;;;5009569;28;20108;-74
2022/03/21 05:36:48;;;;;;;19.15;9.20;;;12.60;70.90;;;;;;4992533;28;20036;-74
2022/03/21 05:39:14;;;;;;;20.50;9.40;;;12.60;70.90;;;;;;5007894;28;20041;-75
2022/03/21 05:41:39;;;;;;;18.10;8.85;;;12.60;70.80;;;;;;5006332;28;20022;-73
2022/03/21 05:44:05;;;;;;;18.48;8.95;;;12.60;71.00;;;;;;5008066;28;20117;-76
2022/03/21 05:46:30;;;;;;;24.38;9.57;;;12.60;70.90;;;;;;5007439;28;20110;-73
2022/03/21 05:49:02;;;;;;;19.83;8.63;;;12.60;71.20;;;;;;5007091;28;20080;-77
2022/03/21 05:51:30;;;;;;;17.33;8.65;;;12.60;71.00;;;;;;5007939;28;20026;-75
2022/03/21 05:53:58;;;;;;;21.52;9.43;;;12.60;71.00;;;;;;5009089;28;20443;-74
2022/03/21 05:56:25;;;;;;;17.15;9.05;;;12.60;71.00;;;;;;5006584;28;20037;-72
2022/03/21 05:58:52;;;;;;;17.95;8.98;;;12.60;71.00;;;;;;5006740;28;20022;-73
2022/03/21 06:01:22;;;;;;;18.40;9.07;;;12.60;70.90;;;;;;5007025;28;20597;-76
2022/03/21 06:03:52;;;;;;;16.23;8.88;;;12.60;70.90;;;;;;5008309;28;20083;-73
2022/03/21 06:06:19;;;;;;;16.23;9.00;;;12.60;71.00;;;;;;5007532;28;20039;-73
2022/03/21 06:08:44;;;;;;;16.75;9.00;;;12.60;71.00;;;;;;5007552;28;20030;-73
2022/03/21 06:11:12;;;;;;;16.27;8.88;;;12.60;71.00;;;;;;5006834;28;20028;-74
2022/03/21 06:13:42;;;;;;;16.80;8.60;;;12.60;70.90;;;;;;5007368;28;20811;-74
2022/03/21 06:16:08;;;;;;;17.73;8.52;;;12.60;70.90;;;;;;5007068;28;20113;-73
2022/03/21 06:18:35;;;;;;;14.57;8.82;;;12.60;70.90;;;;;;5006246;28;20117;-74
2022/03/21 06:21:02;;;;;;;17.45;8.43;;;12.70;71.00;;;;;;5008015;28;20128;-74
2022/03/21 06:23:28;;;;;;;16.52;9.50;;;12.60;71.00;;;;;;5007097;28;20121;-73
2022/03/21 06:25:54;;;;;;;40.17;11.30;;;12.60;71.00;;;;;;5007087;28;20088;-74
2022/03/21 06:28:24;;;;;;;40.47;10.00;;;12.70;70.80;;;;;;5006829;28;20030;-74
2022/03/21 06:30:51;;;;;;;25.13;9.07;;;12.70;75.00;;;;;;5008456;28;20072;-73
2022/03/21 06:33:17;;;;;;;28.63;9.13;;;12.70;71.10;;;;;;5007690;28;20022;-73
2022/03/21 06:35:43;;;;;;;24.27;9.13;;;12.70;70.80;;;;;;5006537;28;20398;-74
2022/03/21 06:38:10;;;;;;;25.85;10.00;;;12.70;71.40;;;;;;5007380;28;20438;-74
2022/03/21 06:40:39;;;;;;;23.08;9.18;;;12.60;72.30;;;;;;5006249;28;20026;-72
2022/03/21 06:43:06;;;;;;;19.27;9.20;;;12.70;72.60;;;;;;5006456;28;20037;-74
2022/03/21 06:45:32;;;;;;;16.45;9.05;;;12.80;72.70;;;;;;5006089;28;20475;-74
2022/03/21 06:47:57;;;;;;;18.08;9.50;;;12.80;72.80;;;;;;5005541;28;20348;-76
2022/03/21 06:50:23;;;;;;;22.00;9.60;;;12.80;72.20;;;;;;5006515;28;20487;-74
2022/03/21 06:52:49;;;;;;;17.90;9.10;;;12.90;72.30;;;;;;4989104;28;20117;-76
2022/03/21 06:55:14;;;;;;;22.33;9.60;;;13.00;72.50;;;;;;4988402;28;20058;-74
2022/03/21 06:57:40;;;;;;;16.00;8.88;;;12.90;72.50;;;;;;4989368;28;20034;-76
2022/03/21 07:00:07;;;;;;;15.90;8.85;;;13.00;73.50;;;;;;4987939;28;20023;-74
2022/03/21 07:02:33;;;;;;;16.80;9.02;;;13.10;73.40;;;;;;4987513;28;20081;-73
2022/03/21 07:04:59;;;;;;;16.42;9.07;;;13.10;73.60;;;;;;4986559;28;20461;-76
2022/03/21 07:07:25;;;;;;;15.35;8.77;;;13.10;73.90;;;;;;4988664;28;20026;-73
2022/03/21 07:09:51;;;;;;;17.08;8.52;;;13.20;74.40;;;;;;4987496;28;20030;-73
2022/03/21 07:12:18;;;;;;;18.30;8.13;;;13.30;74.60;;;;;;4987463;28;20435;-75
2022/03/21 07:14:44;;;;;;;15.13;8.57;;;13.30;75.00;;;;;;4985758;28;20466;-74
2022/03/21 07:17:10;;;;;;;14.82;8.45;;;13.40;75.70;;;;;;4987787;28;20057;-74
2022/03/21 07:19:37;;;;;;;14.95;8.43;;;13.40;76.00;;;;;;4987494;28;20085;-73
2022/03/21 07:22:03;;;;;;;16.15;8.38;;;13.50;76.40;;;;;;4987947;28;20054;-74
2022/03/21 07:24:28;;;;;;;16.45;8.43;;;13.60;76.70;;;;;;4987703;28;20518;-77
2022/03/21 07:26:54;;;;;;;19.80;8.40;;;13.60;76.80;;;;;;4987628;28;20504;-74
2022/03/21 07:29:19;;;;;;;13.45;8.25;;;13.70;77.00;;;;;;4987386;28;20053;-75
2022/03/21 07:31:45;;;;;;;14.57;7.43;;;13.80;77.20;;;;;;4986674;28;20106;-75
2022/03/21 07:34:10;;;;;;;16.40;8.50;;;13.80;77.50;;;;;;4986335;28;20030;-73
2022/03/21 07:36:36;;;;;;;14.15;8.15;;;13.90;77.20;;;;;;4986649;28;20014;-75
2022/03/21 07:39:03;;;;;;;15.63;8.23;;;13.90;77.00;;;;;;4986270;28;20022;-75
2022/03/21 07:41:29;;;;;;;17.63;8.40;;;14.00;77.00;;;;;;4989540;28;20539;-76
2022/03/21 07:43:57;;;;;;;14.30;7.93;;;14.10;76.60;;;;;;4990257;28;20050;-75
2022/03/21 07:49:09;;;;;;;13.80;7.30;;;14.20;76.40;;;;;;4980310;28;20562;-75
2022/03/21 07:54:57;;;;;;;13.25;6.82;;;14.20;75.70;;;;;;4992734;28;20073;-77
2022/03/21 07:57:24;;;;;;;13.35;7.10;;;14.10;75.80;;;;;;5009465;28;20054;-74
2022/03/21 07:59:51;;;;;;;12.40;7.05;;;14.10;75.40;;;;;;5010325;28;20092;-75
2022/03/21 08:02:21;;;;;;;18.80;7.45;;;14.10;75.70;;;;;;5010946;28;20483;-75
2022/03/21 08:04:47;;;;;;;13.13;7.20;;;14.10;75.60;;;;;;5009633;28;20112;-75
2022/03/21 08:07:14;;;;;;;13.93;6.90;;;14.10;75.50;;;;;;5008955;28;20086;-75
2022/03/21 08:09:39;;;;;;;10.55;6.68;;;14.10;75.40;;;;;;5008931;28;20033;-73
2022/03/21 08:12:05;;;;;;;14.38;6.65;;;14.10;75.20;;;;;;5010167;28;20037;-75
2022/03/21 08:14:31;;;;;;;12.93;7.05;;;14.10;75.10;;;;;;5009862;28;20025;-73
2022/03/21 08:16:56;;;;;;;15.90;6.80;;;14.10;75.10;;;;;;5008756;28;20026;-72
2022/03/21 08:19:24;;;;;;;17.75;7.40;;;14.10;74.80;;;;;;5009915;28;20531;-73
2022/03/21 08:21:50;;;;;;;13.18;6.60;;;14.10;74.70;;;;;;5009190;28;20024;-76
2022/03/21 08:24:16;;;;;;;14.30;7.13;;;14.10;74.60;;;;;;5008653;28;20026;-75
2022/03/21 08:26:43;;;;;;;13.15;7.18;;;14.20;74.50;;;;;;5010477;28;20036;-75
2022/03/21 08:29:08;;;;;;;14.52;7.10;;;14.10;74.30;;;;;;5008319;28;20053;-74
2022/03/21 08:31:34;;;;;;;14.07;6.63;;;14.10;74.20;;;;;;5008592;28;20068;-78
2022/03/21 08:34:00;;;;;;;17.88;7.55;;;14.10;74.00;;;;;;5008645;28;20065;-75
2022/03/21 08:36:27;;;;;;;14.10;6.45;;;14.20;74.00;;;;;;5009868;28;20033;-74
2022/03/21 08:38:53;;;;;;;12.27;6.50;;;14.10;73.90;;;;;;5009636;28;20483;-74
2022/03/21 08:41:21;;;;;;;15.52;7.20;;;14.20;73.70;;;;;;5009770;28;20034;-76
2022/03/21 08:43:47;;;;;;;12.95;6.50;;;14.20;73.80;;;;;;5008384;28;20033;-75
2022/03/21 08:46:12;;;;;;;13.05;6.32;;;14.20;73.60;;;;;;5009878;28;20584;-76
2022/03/21 08:51:23;;;;;;;13.30;6.97;;;14.10;73.40;;;;;;5009452;28;20087;-74
2022/03/21 08:53:48;;;;;;;13.32;6.57;;;14.20;73.50;;;;;;5009270;28;20033;-75
2022/03/21 08:56:14;;;;;;;11.40;6.05;;;14.20;73.40;;;;;;5008289;28;20025;-75
2022/03/21 08:58:39;;;;;;;15.40;6.30;;;14.20;73.50;;;;;;5007808;28;20076;-74
2022/03/21 09:01:05;;;;;;;14.65;5.90;;;14.20;73.50;;;;;;5008090;28;20033;-76
2022/03/21 09:03:30;;;;;;;11.90;6.90;;;14.20;73.50;;;;;;5009866;28;20040;-75
2022/03/21 09:05:56;;;;;;;12.15;6.40;;;14.20;73.40;;;;;;5009325;28;20388;-75
2022/03/21 09:08:21;;;;;;;10.80;6.07;;;14.20;73.40;;;;;;5007637;28;20132;-75
2022/03/21 09:10:48;;;;;;;14.00;6.82;;;14.30;73.40;;;;;;5009071;28;20741;-73
2022/03/21 09:13:14;;;;;;;11.32;5.93;;;14.20;73.20;;;;;;5008669;28;20026;-75
2022/03/21 09:15:41;;;;;;;12.20;6.18;;;14.20;73.20;;;;;;5007946;28;20085;-75
2022/03/21 09:18:06;;;;;;;12.50;5.85;;;14.20;73.10;;;;;;5008585;28;20018;-73
2022/03/21 09:20:32;;;;;;;10.48;6.63;;;14.20;73.10;;;;;;5007970;28;20033;-76
2022/03/21 09:22:57;;;;;;;13.13;6.30;;;14.20;73.00;;;;;;5007633;28;20877;-73
2022/03/21 09:25:23;;;;;;;12.77;5.97;;;14.30;73.00;;;;;;5009227;28;20067;-76
2022/03/21 09:27:48;;;;;;;10.02;5.93;;;14.30;72.90;;;;;;5007158;28;20033;-77
2022/03/21 09:30:14;;;;;;;12.30;5.85;;;14.30;72.90;;;;;;5007862;28;20399;-75
2022/03/21 09:32:39;;;;;;;14.30;6.63;;;14.30;72.80;;;;;;5007357;28;20032;-73
2022/03/21 09:35:06;;;;;;;11.95;6.00;;;14.30;72.80;;;;;;5007705;28;20141;-75
2022/03/21 09:37:32;;;;;;;14.32;6.05;;;14.30;72.80;;;;;;5007904;28;20029;-76
2022/03/21 09:39:59;;;;;;;13.30;5.95;;;14.30;72.70;;;;;;5008736;28;20018;-74
2022/03/21 09:42:25;;;;;;;11.23;6.40;;;14.30;72.60;;;;;;5008471;28;20030;-73
2022/03/21 09:44:53;;;;;;;12.38;6.30;;;14.30;72.60;;;;;;5007527;28;20033;-75
2022/03/21 09:50:12;;;;;;;11.80;6.18;;;14.30;72.30;;;;;;5009043;28;20033;-75
2022/03/21 09:52:38;;;;;;;12.10;6.18;;;14.30;72.20;;;;;;5008662;28;20079;-75
2022/03/21 09:55:07;;;;;;;11.70;6.53;;;14.40;72.30;;;;;;5006377;28;20048;-73
2022/03/21 09:57:33;;;;;;;10.18;5.53;;;14.40;72.10;;;;;;5008352;28;20487;-75
2022/03/21 09:59:59;;;;;;;9.57;5.75;;;14.40;72.10;;;;;;5006813;28;20037;-75
2022/03/21 10:02:25;;;;;;;10.48;5.82;;;14.40;72.10;;;;;;5008215;28;20033;-72
2022/03/21 10:04:52;;;;;;;10.35;5.80;;;14.40;72.00;;;;;;5006500;28;20045;-75
2022/03/21 10:07:27;;;;;;;11.23;5.90;;;14.40;72.00;;;;;;5006279;28;20029;-73
2022/03/21 10:10:05;;;;;;;8.88;5.53;;;14.40;71.90;;;;;;5005046;28;20076;-74
2022/03/21 10:12:31;;;;;;;9.73;5.53;;;14.40;72.00;;;;;;5006656;28;20495;-75
2022/03/21 10:14:59;;;;;;;11.30;6.40;;;14.40;71.90;;;;;;5007083;28;20084;-76
2022/03/21 10:17:24;;;;;;;10.15;5.68;;;14.40;71.90;;;;;;5006821;28;20017;-73
2022/03/21 10:19:54;;;;;;;8.73;5.50;;;14.40;71.80;;;;;;5006491;28;20560;-73
2022/03/21 10:22:33;;;;;;;10.43;5.95;;;14.40;71.90;;;;;;5006503;28;20560;-73
2022/03/21 10:25:02;;;;;;;10.65;5.72;;;14.40;71.80;;;;;;5007884;28;20029;-77
2022/03/21 10:27:36;;;;;;;9.93;4.95;;;14.40;71.80;;;;;;5006622;28;20029;-73
2022/03/21 10:30:15;;;;;;;10.43;5.80;;;14.40;71.80;;;;;;5007908;28;20037;-75
2022/03/21 10:32:54;;;;;;;9.10;5.90;;;14.40;71.80;;;;;;5007944;28;20053;-75
2022/03/21 10:35:31;;;;;;;9.98;6.20;;;14.40;71.80;;;;;;5006574;28;20022;-74
2022/03/21 10:38:02;;;;;;;9.82;5.50;;;14.40;71.80;;;;;;5005997;28;20479;-75
2022/03/21 10:40:47;;;;;;;9.73;5.30;;;14.40;72.30;;;;;;5006552;28;20080;-73
2022/03/21 10:43:18;;;;;;;10.48;5.60;;;14.40;71.80;;;;;;5006841;28;20032;-76
2022/03/21 10:45:50;;;;;;;10.85;5.65;;;14.40;71.80;;;;;;5007842;28;20113;-75
2022/03/21 10:48:19;;;;;;;9.27;5.10;;;14.40;71.80;;;;;;5007213;28;20026;-75
2022/03/21 10:50:49;;;;;;;9.55;5.95;;;14.40;71.80;;;;;;5007677;28;20030;-74
2022/03/21 10:53:16;;;;;;;9.98;5.97;;;14.40;71.90;;;;;;5007537;28;20026;-75
2022/03/21 10:55:47;;;;;;;8.82;5.68;;;14.40;71.70;;;;;;5007297;28;20033;-75
2022/03/21 10:58:15;;;;;;;8.50;5.32;;;14.40;71.70;;;;;;5005870;28;20119;-76
2022/03/21 11:00:41;;;;;;;8.30;5.18;;;14.40;71.70;;;;;;5005984;28;20034;-75
2022/03/21 11:03:16;;;;;;;9.68;5.68;;;14.40;72.00;;;;;;5007666;28;20037;-74
2022/03/21 11:05:50;;;;;;;8.98;5.25;;;14.50;71.70;;;;;;5006259;28;20026;-74
2022/03/21 11:08:18;;;;;;;9.65;5.53;;;14.50;71.60;;;;;;5005827;28;20030;-74
2022/03/21 11:10:47;;;;;;;9.43;5.68;;;14.50;71.60;;;;;;5007101;28;20119;-74
2022/03/21 11:13:13;;;;;;;8.60;5.63;;;14.50;71.60;;;;;;5006937;28;20075;-74
2022/03/21 11:15:42;;;;;;;10.65;5.25;;;14.50;71.60;;;;;;5008487;28;20454;-76
2022/03/21 11:18:09;;;;;;;8.38;5.30;;;14.50;71.60;;;;;;5010834;28;20401;-76
2022/03/21 11:20:35;;;;;;;9.48;6.03;;;14.50;71.50;;;;;;5009911;28;20862;-73
2022/03/21 11:23:01;;;;;;;8.80;5.65;;;14.50;71.50;;;;;;5011309;28;20024;-74
2022/03/21 11:25:32;;;;;;;9.75;5.68;;;14.50;71.40;;;;;;5011230;28;20040;-75
2022/03/21 11:28:17;;;;;;;8.77;5.33;;;14.60;71.40;;;;;;5009515;28;20030;-75
2022/03/21 11:31:05;;;;;;;8.48;5.22;;;14.60;71.40;;;;;;5009898;28;20026;-78
2022/03/21 11:33:59;;;;;;;8.43;5.40;;;14.60;71.40;;;;;;5011025;28;20022;-75
2022/03/21 11:36:24;;;;;;;8.77;5.18;;;14.60;71.40;;;;;;5010749;28;20029;-76
2022/03/21 11:38:58;;;;;;;8.45;5.28;;;14.60;71.40;;;;;;5009495;28;20029;-74
2022/03/21 11:41:26;;;;;;;8.10;5.03;;;14.60;71.40;;;;;;5009255;28;20037;-73
2022/03/21 11:44:04;;;;;;;8.68;5.25;;;14.60;71.30;;;;;;5009594;28;20026;-74
2022/03/21 11:46:33;;;;;;;8.70;5.32;;;14.60;71.40;;;;;;5011066;28;20030;-75
2022/03/21 11:49:01;;;;;;;9.55;5.40;;;14.60;71.40;;;;;;5010263;28;20061;-74
2022/03/21 11:51:40;;;;;;;8.77;5.20;;;14.60;71.40;;;;;;5009176;28;20028;-75
2022/03/21 11:54:34;;;;;;;9.10;5.22;;;14.60;71.40;;;;;;5009776;28;20479;-75
2022/03/21 11:56:59;;;;;;;9.00;5.18;;;14.60;71.40;;;;;;5009178;28;20021;-74
2022/03/21 11:59:34;;;;;;;8.25;5.20;;;14.60;71.40;;;;;;5008897;28;20029;-73
2022/03/21 12:02:11;;;;;;;8.43;5.00;;;14.60;71.50;;;;;;5010597;28;20041;-75
2022/03/21 12:04:39;;;;;;;8.27;4.88;;;14.60;71.40;;;;;;5009069;28;20448;-75
2022/03/21 12:07:14;;;;;;;8.43;5.32;;;14.60;71.40;;;;;;5008954;28;20022;-74
2022/03/21 12:09:53;;;;;;;9.60;5.57;;;14.60;71.40;;;;;;5010524;28;20025;-75
2022/03/21 12:12:20;;;;;;;8.68;5.57;;;14.60;71.50;;;;;;5008919;28;20092;-77
2022/03/21 12:14:58;;;;;;;8.43;5.07;;;14.50;71.40;;;;;;5009821;28;20026;-73
2022/03/21 12:17:23;;;;;;;7.72;5.18;;;14.50;71.40;;;;;;5010052;28;20084;-74
2022/03/21 12:19:54;;;;;;;8.82;5.13;;;14.50;71.50;;;;;;5008883;28;20461;-75
2022/03/21 12:22:29;;;;;;;8.07;5.07;;;14.60;71.60;;;;;;5010209;28;20044;-75
2022/03/21 12:25:13;;;;;;;8.48;5.10;;;14.60;71.60;;;;;;5008966;28;20053;-75
2022/03/21 12:27:41;;;;;;;9.07;5.13;;;14.50;71.50;;;;;;5007634;28;20030;-76
2022/03/21 12:30:30;;;;;;;10.98;5.93;;;14.50;71.50;;;;;;5008686;28;20021;-73
2022/03/21 12:33:23;;;;;;;8.68;5.07;;;14.50;71.50;;;;;;5010031;28;20373;-72
2022/03/21 12:35:48;;;;;;;8.35;4.97;;;14.60;71.60;;;;;;5008698;28;20809;-75
2022/03/21 12:38:34;;;;;;;9.27;5.25;;;14.60;71.60;;;;;;5009500;28;20026;-77
2022/03/21 12:41:02;;;;;;;8.70;5.63;;;14.60;71.60;;;;;;5008649;28;20029;-75
2022/03/21 12:43:40;;;;;;;8.75;5.47;;;14.60;71.60;;;;;;5009695;28;20113;-74
2022/03/21 12:46:06;;;;;;;8.60;4.75;;;14.50;71.50;;;;;;5008606;28;20149;-75
2022/03/21 12:48:35;;;;;;;8.70;4.95;;;14.50;71.60;;;;;;5009518;28;20033;-75
2022/03/21 12:51:02;;;;;;;8.57;4.88;;;14.50;71.60;;;;;;5008899;28;20104;-76
2022/03/21 12:53:39;;;;;;;7.78;4.88;;;14.50;71.70;;;;;;5008192;28;20037;-75
2022/03/21 12:56:09;;;;;;;9.52;5.22;;;14.50;71.70;;;;;;5008118;28;20558;-73
2022/03/21 12:58:45;;;;;;;8.20;5.07;;;14.50;71.70;;;;;;5007785;28;20153;-74
2022/03/21 13:01:18;;;;;;;7.18;4.70;;;14.50;71.70;;;;;;5009435;28;20025;-74
2022/03/21 13:03:44;;;;;;;7.50;5.15;;;14.50;71.70;;;;;;5009496;28;20042;-75
2022/03/21 13:11:34;;;;;;;7.40;4.75;;;14.40;71.90;;;;;;5009106;28;20466;-76